Observations
| Time | Sensor | AQI | SAQ | Temp °C | Hum % | Pres Pa | CO μg/m³ | H₂S μg/m³ | NO μg/m³ | NO₂ μg/m³ | O₃ μg/m³ | SO₂ μg/m³ | CO₂e PPM | VOC PPM | PM1 μg/m³ | PM2.5 μg/m³ | PM4 μg/m³ | PM10 μg/m³ | TPS µm |
|---|---|---|---|---|---|---|---|---|---|---|---|---|---|---|---|---|---|---|---|
| Thursday 13 August 2026 | |||||||||||||||||||
| 08:06 | Trim Patrick St | 1 | 23.3 | 68 | 38,460 | 0 | 0 | 1.43 | 7.85 | 20.94 | 5.39 | 4.57 | 8.89 | 9.78 | |||||
| 08:05 | Trim Market St | 2 | 23.8 | 67 | 55,848 | 0.07 | 0 | 1.61 | 13.1 | 36.5 | 0 | 2.85 | 3.67 | 6.25 | |||||
| 08:05 | Trim Patrick St | 1 | 23.2 | 69 | 38,460 | 0 | 0 | 1.39 | 7.5 | 30.4 | 5.27 | 5.43 | 9.58 | 10.54 | |||||
| 08:04 | Trim Market St | 2 | 23.7 | 68 | 55,796 | 0.06 | 0 | 1.55 | 13.16 | 29.45 | 0 | 2.14 | 4.15 | 6.25 | |||||
| 08:04 | Trim Patrick St | 2 | 23.2 | 69 | 38,460 | 0 | 0 | 1.27 | 12.2 | 34.13 | 5.53 | 4.57 | 9.55 | 10.51 | |||||
| 08:03 | Trim Patrick St | 1 | 23.2 | 69 | 38,460 | 0 | 0 | 1.36 | 11.09 | 20.65 | 5.05 | 6.29 | 10.25 | 11.28 | |||||
| 08:02 | Trim Market St | 2 | 23.6 | 68 | 55,672 | 0.05 | 0 | 1.39 | 11.43 | 35.68 | 0 | 2.14 | 3.65 | 5.61 | |||||
| 08:02 | Trim Patrick St | 1 | 23.1 | 69 | 38,460 | 0 | 0 | 1.51 | 12.49 | 31.84 | 5.51 | 6.29 | 9.54 | 10.49 | |||||
| 08:01 | Trim Market St | 2 | 23.5 | 68 | 55,613 | 0.06 | 0 | 1.35 | 8.88 | 32.18 | 0 | 2.85 | 3.65 | 5.61 | |||||
| 08:01 | Trim Patrick St | 2 | 23.1 | 70 | 38,460 | 0 | 0 | 1.57 | 11.97 | 35.18 | 5.86 | 4.57 | 8.79 | 9.67 | |||||
| 08:00 | Trim Market St | 2 | 23.5 | 68 | 55,530 | 0.05 | 0 | 1.4 | 12.21 | 31.48 | 0 | 2.14 | 4.13 | 6.89 | |||||
| 08:00 | Trim Patrick St | 1 | 23 | 70 | 38,460 | 0 | 0 | 1.72 | 12.87 | 25.89 | 5.16 | 5.43 | 10.24 | 11.26 | |||||
| 07:59 | Trim Market St | 2 | 23.4 | 68 | 55,441 | 0.07 | 0 | 1.49 | 12.92 | 38.73 | 0 | 1.43 | 4.12 | 6.25 | |||||
| 07:59 | Trim Patrick St | 1 | 22.9 | 70 | 38,460 | 0 | 0 | 1.81 | 12.67 | 20.95 | 4.66 | 6.29 | 10.2 | 11.22 | |||||
| 07:58 | Trim Patrick St | 1 | 22.9 | 70 | 38,460 | 0 | 0 | 1.74 | 3.85 | 19.04 | 4.99 | 4.57 | 10.18 | 11.2 | |||||
| 07:56 | Trim Market St | 2 | 23.3 | 69 | 55,104 | 0.1 | 0 | 1.45 | 8.01 | 37.72 | 0 | 2.14 | 4.1 | 6.26 | |||||
| 07:56 | Trim Patrick St | 1 | 22.9 | 70 | 38,460 | 0 | 0 | 1.58 | 5.27 | 16.48 | 5.06 | 4.57 | 8.74 | 9.61 | |||||
| 07:55 | Trim Market St | 2 | 23.2 | 69 | 54,981 | 0.1 | 0 | 1.4 | 7.61 | 37.54 | 0 | 2.14 | 3.6 | 5.63 | |||||
| 07:55 | Trim Patrick St | 1 | 22.8 | 70 | 38,460 | 0 | 0 | 1.38 | 9.05 | 25.39 | 5.33 | 5.43 | 9.51 | 10.46 | |||||
| 07:54 | Trim Patrick St | 1 | 22.7 | 70 | 38,460 | 0 | 0.99 | 1.43 | 14.29 | 38.8 | 5.47 | 4.57 | 8.76 | 9.64 | |||||